Flugplatz Bad Ditzenbach

Für EDPB sind keine METAR/TAF Berichte vorhanden.
Es werden die Flugwettermeldungen vom Flugplatz Stuttgart in 39 km Entfernung angezeigt.

Bericht für EDDS

vom 31.05. um 10:20 UTC

variable Windrichtung mit 4 kt

Sichtweite 10 km oder mehr

gute Sicht, keine Wolken < 5000 ft, keine CB, keine Wettererscheinungen (CAVOK)

Temperatur 18.0°C

Taupunkt 3.0°C

Luftfeuchtigkeit 37%

Luftdruck 1020 hPa

keine wesentliche Wetteränderung innerhalb den nächsten 2 Stunden zu erwarten

EDDS 311020Z VRB04KT CAVOK 18/03 Q1020 NOSIG

Prognose für EDDS

vom 31.05. um 05:00 UTC

Zwischen 06:00 UTC und 06:00 UTC

Wind 4 kt aus 340°

Sichtweite 10 km oder mehr

keine signifikanten Wettererscheinungen

keine Wolken


Zwischen 06:00 und 09:00 UTC übergehend zu

Wind 7 kt aus 40°

Sichtweite 10 km oder mehr

keine signifikanten Wettererscheinungen

keine Wolken


Zwischen 20:00 und 22:00 UTC übergehend zu

variable Windrichtung mit 3 kt

Sichtweite 10 km oder mehr

keine signifikanten Wettererscheinungen

keine Wolken

TAF EDDS 310500Z 3106/0106 34004KT CAVOK BECMG 3106/3109 04007KT BECMG 3120/3122 VRB03KT
Impressum